<?xml version="1.0" encoding="UTF-8" standalone="no" ?>
<gpx xmlns="http://www.topografix.com/GPX/1/1" xmlns:xsi="http://www.w3.org/2001/XMLSchema-instance" xsi:schemaLocation="http://www.topografix.com/GPX/1/1 http://www.topografix.com/GPX/1/1/gpx.xsd" version="1.1" creator="VisuGPX - https://www.visugpx.com">
  <metadata>
    <name>13206383-merfy trigny</name>
  </metadata>
  <trk>
    <name><![CDATA[13206383-merfy trigny]]></name>
    <extensions>
      <line xmlns="http://www.topografix.com/GPX/gpx_style/0/2">
        <color>0000FF</color>
        <width>4</width>
      </line>
    </extensions>
    <trkseg>
      <trkpt lat="49.29679" lon="3.94152">
        <ele>138</ele>
        <time>2021-06-08T16:53:38Z</time>
      </trkpt>
      <trkpt lat="49.29788" lon="3.94208">
        <ele>140</ele>
        <time>2021-06-08T16:56:11Z</time>
      </trkpt>
      <trkpt lat="49.29755" lon="3.94024">
        <ele>145</ele>
        <time>2021-06-08T16:58:57Z</time>
      </trkpt>
      <trkpt lat="49.29825" lon="3.93886">
        <ele>154</ele>
        <time>2021-06-08T17:01:30Z</time>
      </trkpt>
      <trkpt lat="49.29785" lon="3.93794">
        <ele>159</ele>
        <time>2021-06-08T17:03:06Z</time>
      </trkpt>
      <trkpt lat="49.29725" lon="3.93636">
        <ele>167</ele>
        <time>2021-06-08T17:05:45Z</time>
      </trkpt>
      <trkpt lat="49.29858" lon="3.93644">
        <ele>176</ele>
        <time>2021-06-08T17:08:43Z</time>
      </trkpt>
      <trkpt lat="49.29971" lon="3.93534">
        <ele>187</ele>
        <time>2021-06-08T17:11:41Z</time>
      </trkpt>
      <trkpt lat="49.30158" lon="3.9308">
        <ele>197</ele>
        <time>2021-06-08T17:19:28Z</time>
      </trkpt>
      <trkpt lat="49.30444" lon="3.93192">
        <ele>192</ele>
        <time>2021-06-08T17:26:02Z</time>
      </trkpt>
      <trkpt lat="49.30567" lon="3.93167">
        <ele>194</ele>
        <time>2021-06-08T17:28:48Z</time>
      </trkpt>
      <trkpt lat="49.30674" lon="3.93269">
        <ele>196</ele>
        <time>2021-06-08T17:31:36Z</time>
      </trkpt>
      <trkpt lat="49.3084" lon="3.93353">
        <ele>194</ele>
        <time>2021-06-08T17:35:29Z</time>
      </trkpt>
      <trkpt lat="49.3096" lon="3.93353">
        <ele>192</ele>
        <time>2021-06-08T17:38:09Z</time>
      </trkpt>
      <trkpt lat="49.31256" lon="3.93361">
        <ele>187</ele>
        <time>2021-06-08T17:44:45Z</time>
      </trkpt>
      <trkpt lat="49.31253" lon="3.93197">
        <ele>185</ele>
        <time>2021-06-08T17:47:07Z</time>
      </trkpt>
      <trkpt lat="49.31402" lon="3.9307">
        <ele>182</ele>
        <time>2021-06-08T17:50:55Z</time>
      </trkpt>
      <trkpt lat="49.31469" lon="3.92705">
        <ele>173</ele>
        <time>2021-06-08T17:56:25Z</time>
      </trkpt>
      <trkpt lat="49.31499" lon="3.92248">
        <ele>171</ele>
        <time>2021-06-08T18:03:04Z</time>
      </trkpt>
      <trkpt lat="49.31376" lon="3.92008">
        <ele>160</ele>
        <time>2021-06-08T18:07:30Z</time>
      </trkpt>
      <trkpt lat="49.31396" lon="3.91881">
        <ele>170</ele>
        <time>2021-06-08T18:09:23Z</time>
      </trkpt>
      <trkpt lat="49.31349" lon="3.91677">
        <ele>155</ele>
        <time>2021-06-08T18:12:32Z</time>
      </trkpt>
      <trkpt lat="49.31023" lon="3.91064">
        <ele>109</ele>
        <time>2021-06-08T18:24:00Z</time>
      </trkpt>
      <trkpt lat="49.3098" lon="3.90811">
        <ele>110</ele>
        <time>2021-06-08T18:27:47Z</time>
      </trkpt>
      <trkpt lat="49.30893" lon="3.90569">
        <ele>116</ele>
        <time>2021-06-08T18:31:48Z</time>
      </trkpt>
      <trkpt lat="49.3067" lon="3.90288">
        <ele>110</ele>
        <time>2021-06-08T18:38:13Z</time>
      </trkpt>
      <trkpt lat="49.30497" lon="3.89701">
        <ele>143</ele>
        <time>2021-06-08T18:47:33Z</time>
      </trkpt>
      <trkpt lat="49.30308" lon="3.89518">
        <ele>130</ele>
        <time>2021-06-08T18:52:32Z</time>
      </trkpt>
      <trkpt lat="49.29975" lon="3.89523">
        <ele>117</ele>
        <time>2021-06-08T18:59:56Z</time>
      </trkpt>
      <trkpt lat="49.29905" lon="3.89691">
        <ele>111</ele>
        <time>2021-06-08T19:02:50Z</time>
      </trkpt>
      <trkpt lat="49.29549" lon="3.89701">
        <ele>105</ele>
        <time>2021-06-08T19:10:45Z</time>
      </trkpt>
      <trkpt lat="49.29216" lon="3.89719">
        <ele>100</ele>
        <time>2021-06-08T19:18:09Z</time>
      </trkpt>
      <trkpt lat="49.2889" lon="3.89559">
        <ele>77</ele>
        <time>2021-06-08T19:25:46Z</time>
      </trkpt>
      <trkpt lat="49.28873" lon="3.89913">
        <ele>72</ele>
        <time>2021-06-08T19:30:55Z</time>
      </trkpt>
      <trkpt lat="49.2881" lon="3.90212">
        <ele>71</ele>
        <time>2021-06-08T19:35:29Z</time>
      </trkpt>
      <trkpt lat="49.28816" lon="3.90268">
        <ele>71</ele>
        <time>2021-06-08T19:36:18Z</time>
      </trkpt>
      <trkpt lat="49.28913" lon="3.90694">
        <ele>78</ele>
        <time>2021-06-08T19:42:51Z</time>
      </trkpt>
      <trkpt lat="49.28903" lon="3.90796">
        <ele>80</ele>
        <time>2021-06-08T19:44:21Z</time>
      </trkpt>
      <trkpt lat="49.28906" lon="3.91319">
        <ele>92</ele>
        <time>2021-06-08T19:51:56Z</time>
      </trkpt>
      <trkpt lat="49.2892" lon="3.91654">
        <ele>95</ele>
        <time>2021-06-08T19:56:48Z</time>
      </trkpt>
      <trkpt lat="49.28926" lon="3.91743">
        <ele>95</ele>
        <time>2021-06-08T19:58:06Z</time>
      </trkpt>
      <trkpt lat="49.28763" lon="3.91988">
        <ele>106</ele>
        <time>2021-06-08T20:03:10Z</time>
      </trkpt>
      <trkpt lat="49.2872" lon="3.92044">
        <ele>101</ele>
        <time>2021-06-08T20:04:26Z</time>
      </trkpt>
      <trkpt lat="49.28777" lon="3.92212">
        <ele>109</ele>
        <time>2021-06-08T20:07:11Z</time>
      </trkpt>
      <trkpt lat="49.2868" lon="3.92335">
        <ele>104</ele>
        <time>2021-06-08T20:09:59Z</time>
      </trkpt>
      <trkpt lat="49.28703" lon="3.92501">
        <ele>112</ele>
        <time>2021-06-08T20:12:26Z</time>
      </trkpt>
      <trkpt lat="49.28823" lon="3.9282">
        <ele>117</ele>
        <time>2021-06-08T20:17:47Z</time>
      </trkpt>
      <trkpt lat="49.289" lon="3.93412">
        <ele>123</ele>
        <time>2021-06-08T20:26:32Z</time>
      </trkpt>
      <trkpt lat="49.29113" lon="3.93343">
        <ele>134</ele>
        <time>2021-06-08T20:31:23Z</time>
      </trkpt>
      <trkpt lat="49.29456" lon="3.93335">
        <ele>140</ele>
        <time>2021-06-08T20:39:01Z</time>
      </trkpt>
      <trkpt lat="49.29476" lon="3.93817">
        <ele>139</ele>
        <time>2021-06-08T20:46:01Z</time>
      </trkpt>
      <trkpt lat="49.29542" lon="3.94055">
        <ele>137</ele>
        <time>2021-06-08T20:49:46Z</time>
      </trkpt>
      <trkpt lat="49.29585" lon="3.94057">
        <ele>137</ele>
        <time>2021-06-08T20:50:43Z</time>
      </trkpt>
      <trkpt lat="49.29709" lon="3.94131">
        <ele>140</ele>
        <time>2021-06-08T20:53:41Z</time>
      </trkpt>
      <trkpt lat="49.29585" lon="3.9408">
        <ele>137</ele>
        <time>2021-06-08T20:56:32Z</time>
      </trkpt>
    </trkseg>
  </trk>
</gpx>